sensor_id;sensor_type;location;lat;lon;timestamp;P1;durP1;ratioP1;P2;durP2;ratioP2
55409;SDS011;41279;43.546;16.426;2023-03-16T00:01:14;4.30;;;3.90;;
55409;SDS011;41279;43.546;16.426;2023-03-16T00:03:40;4.82;;;4.10;;
55409;SDS011;41279;43.546;16.426;2023-03-16T00:06:05;4.65;;;3.90;;
55409;SDS011;41279;43.546;16.426;2023-03-16T00:08:31;4.47;;;3.95;;
55409;SDS011;41279;43.546;16.426;2023-03-16T00:10:56;5.05;;;3.70;;
55409;SDS011;41279;43.546;16.426;2023-03-16T00:13:23;5.63;;;4.03;;
55409;SDS011;41279;43.546;16.426;2023-03-16T00:15:49;5.45;;;3.90;;
55409;SDS011;41279;43.546;16.426;2023-03-16T00:18:15;4.80;;;4.00;;
55409;SDS011;41279;43.546;16.426;2023-03-16T00:20:41;4.38;;;3.80;;
55409;SDS011;41279;43.546;16.426;2023-03-16T00:23:06;4.80;;;3.92;;
55409;SDS011;41279;43.546;16.426;2023-03-16T00:25:32;4.57;;;4.00;;
55409;SDS011;41279;43.546;16.426;2023-03-16T00:27:59;4.93;;;4.00;;
55409;SDS011;41279;43.546;16.426;2023-03-16T00:30:35;4.30;;;3.80;;
55409;SDS011;41279;43.546;16.426;2023-03-16T00:33:00;4.60;;;3.88;;
55409;SDS011;41279;43.546;16.426;2023-03-16T00:35:26;4.63;;;4.13;;
55409;SDS011;41279;43.546;16.426;2023-03-16T00:37:52;4.75;;;3.97;;
55409;SDS011;41279;43.546;16.426;2023-03-16T00:40:21;4.25;;;3.83;;
55409;SDS011;41279;43.546;16.426;2023-03-16T00:42:47;6.57;;;4.45;;
55409;SDS011;41279;43.546;16.426;2023-03-16T00:45:19;5.45;;;4.38;;
55409;SDS011;41279;43.546;16.426;2023-03-16T00:47:44;6.10;;;4.10;;
55409;SDS011;41279;43.546;16.426;2023-03-16T00:50:09;5.10;;;4.38;;
55409;SDS011;41279;43.546;16.426;2023-03-16T00:52:35;4.68;;;4.20;;
55409;SDS011;41279;43.546;16.426;2023-03-16T00:55:01;4.53;;;4.13;;
55409;SDS011;41279;43.546;16.426;2023-03-16T00:57:28;7.43;;;4.45;;
55409;SDS011;41279;43.546;16.426;2023-03-16T00:59:54;4.30;;;3.90;;
55409;SDS011;41279;43.546;16.426;2023-03-16T01:02:20;4.30;;;3.90;;
55409;SDS011;41279;43.546;16.426;2023-03-16T01:04:48;4.55;;;3.97;;
55409;SDS011;41279;43.546;16.426;2023-03-16T01:07:15;4.43;;;4.03;;
55409;SDS011;41279;43.546;16.426;2023-03-16T01:09:41;5.15;;;4.20;;
55409;SDS011;41279;43.546;16.426;2023-03-16T01:12:09;4.57;;;3.80;;
55409;SDS011;41279;43.546;16.426;2023-03-16T01:14:37;5.20;;;4.30;;
55409;SDS011;41279;43.546;16.426;2023-03-16T01:17:04;4.43;;;4.03;;
55409;SDS011;41279;43.546;16.426;2023-03-16T01:19:32;4.57;;;4.07;;
55409;SDS011;41279;43.546;16.426;2023-03-16T01:21:59;4.78;;;4.28;;
55409;SDS011;41279;43.546;16.426;2023-03-16T01:24:29;4.38;;;3.97;;
55409;SDS011;41279;43.546;16.426;2023-03-16T01:26:55;5.40;;;4.40;;
55409;SDS011;41279;43.546;16.426;2023-03-16T01:29:20;5.13;;;3.90;;
55409;SDS011;41279;43.546;16.426;2023-03-16T01:31:46;4.93;;;4.43;;
55409;SDS011;41279;43.546;16.426;2023-03-16T01:34:12;6.32;;;4.38;;
55409;SDS011;41279;43.546;16.426;2023-03-16T01:36:42;4.85;;;4.35;;
55409;SDS011;41279;43.546;16.426;2023-03-16T01:39:10;5.20;;;4.45;;
55409;SDS011;41279;43.546;16.426;2023-03-16T01:41:43;6.80;;;4.57;;
55409;SDS011;41279;43.546;16.426;2023-03-16T01:44:14;4.63;;;4.10;;
55409;SDS011;41279;43.546;16.426;2023-03-16T01:46:41;4.55;;;4.15;;
55409;SDS011;41279;43.546;16.426;2023-03-16T01:52:10;4.88;;;4.38;;
55409;SDS011;41279;43.546;16.426;2023-03-16T01:54:46;4.80;;;4.28;;
55409;SDS011;41279;43.546;16.426;2023-03-16T01:57:17;4.50;;;4.10;;
55409;SDS011;41279;43.546;16.426;2023-03-16T02:02:22;4.43;;;4.03;;
55409;SDS011;41279;43.546;16.426;2023-03-16T02:04:57;4.60;;;4.20;;
55409;SDS011;41279;43.546;16.426;2023-03-16T02:09:56;4.38;;;3.97;;
55409;SDS011;41279;43.546;16.426;2023-03-16T02:12:25;5.07;;;3.88;;
55409;SDS011;41279;43.546;16.426;2023-03-16T02:14:51;5.65;;;4.10;;
55409;SDS011;41279;43.546;16.426;2023-03-16T02:17:18;4.60;;;4.20;;
55409;SDS011;41279;43.546;16.426;2023-03-16T02:22:23;5.25;;;4.10;;
55409;SDS011;41279;43.546;16.426;2023-03-16T02:24:50;4.38;;;3.97;;
55409;SDS011;41279;43.546;16.426;2023-03-16T02:30:14;4.80;;;4.30;;
55409;SDS011;41279;43.546;16.426;2023-03-16T02:32:42;5.40;;;3.83;;
55409;SDS011;41279;43.546;16.426;2023-03-16T02:35:10;5.28;;;4.38;;
55409;SDS011;41279;43.546;16.426;2023-03-16T02:37:37;7.55;;;4.45;;
55409;SDS011;41279;43.546;16.426;2023-03-16T02:40:23;4.88;;;4.38;;
55409;SDS011;41279;43.546;16.426;2023-03-16T02:42:53;4.70;;;4.20;;
55409;SDS011;41279;43.546;16.426;2023-03-16T02:45:26;4.88;;;4.40;;
55409;SDS011;41279;43.546;16.426;2023-03-16T02:47:57;4.65;;;4.20;;
55409;SDS011;41279;43.546;16.426;2023-03-16T02:50:27;4.88;;;4.25;;
55409;SDS011;41279;43.546;16.426;2023-03-16T02:52:53;4.43;;;4.00;;
55409;SDS011;41279;43.546;16.426;2023-03-16T02:55:18;4.50;;;4.10;;
55409;SDS011;41279;43.546;16.426;2023-03-16T02:57:45;5.20;;;4.40;;
55409;SDS011;41279;43.546;16.426;2023-03-16T03:00:11;5.40;;;4.20;;
55409;SDS011;41279;43.546;16.426;2023-03-16T03:02:41;4.88;;;4.30;;
55409;SDS011;41279;43.546;16.426;2023-03-16T03:05:07;4.80;;;4.30;;
55409;SDS011;41279;43.546;16.426;2023-03-16T03:07:33;4.72;;;4.20;;
55409;SDS011;41279;43.546;16.426;2023-03-16T03:09:58;4.57;;;4.13;;
55409;SDS011;41279;43.546;16.426;2023-03-16T03:12:26;4.65;;;4.18;;
55409;SDS011;41279;43.546;16.426;2023-03-16T03:14:52;4.60;;;4.05;;
55409;SDS011;41279;43.546;16.426;2023-03-16T03:17:17;5.07;;;4.20;;
55409;SDS011;41279;43.546;16.426;2023-03-16T03:19:43;4.45;;;4.03;;
55409;SDS011;41279;43.546;16.426;2023-03-16T03:22:08;4.30;;;3.90;;
55409;SDS011;41279;43.546;16.426;2023-03-16T03:24:34;4.53;;;4.13;;
55409;SDS011;41279;43.546;16.426;2023-03-16T03:27:00;4.97;;;4.00;;
55409;SDS011;41279;43.546;16.426;2023-03-16T03:29:29;5.25;;;3.95;;
55409;SDS011;41279;43.546;16.426;2023-03-16T03:32:01;8.82;;;4.05;;
55409;SDS011;41279;43.546;16.426;2023-03-16T03:34:28;4.95;;;4.00;;
55409;SDS011;41279;43.546;16.426;2023-03-16T03:36:55;5.88;;;4.60;;
55409;SDS011;41279;43.546;16.426;2023-03-16T03:39:22;4.57;;;3.72;;
55409;SDS011;41279;43.546;16.426;2023-03-16T03:41:48;5.80;;;4.30;;
55409;SDS011;41279;43.546;16.426;2023-03-16T03:44:13;5.05;;;4.30;;
55409;SDS011;41279;43.546;16.426;2023-03-16T03:46:39;6.32;;;4.40;;
55409;SDS011;41279;43.546;16.426;2023-03-16T03:49:04;4.68;;;4.18;;
55409;SDS011;41279;43.546;16.426;2023-03-16T03:51:30;5.55;;;4.25;;
55409;SDS011;41279;43.546;16.426;2023-03-16T03:53:57;4.63;;;4.03;;
55409;SDS011;41279;43.546;16.426;2023-03-16T03:56:22;6.43;;;4.35;;
55409;SDS011;41279;43.546;16.426;2023-03-16T03:58:48;7.10;;;4.30;;
55409;SDS011;41279;43.546;16.426;2023-03-16T04:01:13;4.93;;;4.43;;
55409;SDS011;41279;43.546;16.426;2023-03-16T04:03:39;5.90;;;4.47;;
55409;SDS011;41279;43.546;16.426;2023-03-16T04:06:05;5.30;;;4.80;;
55409;SDS011;41279;43.546;16.426;2023-03-16T04:08:32;5.68;;;4.60;;
55409;SDS011;41279;43.546;16.426;2023-03-16T04:10:57;4.60;;;4.20;;
55409;SDS011;41279;43.546;16.426;2023-03-16T04:13:29;5.30;;;4.70;;
55409;SDS011;41279;43.546;16.426;2023-03-16T04:15:55;5.07;;;4.40;;
55409;SDS011;41279;43.546;16.426;2023-03-16T04:18:22;5.30;;;4.68;;
55409;SDS011;41279;43.546;16.426;2023-03-16T04:20:48;5.25;;;4.75;;
55409;SDS011;41279;43.546;16.426;2023-03-16T04:23:13;5.03;;;4.55;;
55409;SDS011;41279;43.546;16.426;2023-03-16T04:25:40;5.28;;;4.20;;
55409;SDS011;41279;43.546;16.426;2023-03-16T04:28:06;5.22;;;4.28;;
55409;SDS011;41279;43.546;16.426;2023-03-16T04:30:31;5.53;;;4.50;;
55409;SDS011;41279;43.546;16.426;2023-03-16T04:32:57;4.88;;;4.38;;
55409;SDS011;41279;43.546;16.426;2023-03-16T04:35:22;5.28;;;4.50;;
55409;SDS011;41279;43.546;16.426;2023-03-16T04:37:48;4.90;;;4.40;;
55409;SDS011;41279;43.546;16.426;2023-03-16T04:40:13;7.50;;;4.35;;
55409;SDS011;41279;43.546;16.426;2023-03-16T04:42:43;4.80;;;4.40;;
55409;SDS011;41279;43.546;16.426;2023-03-16T04:45:10;6.35;;;4.50;;
55409;SDS011;41279;43.546;16.426;2023-03-16T04:47:36;4.60;;;4.20;;
55409;SDS011;41279;43.546;16.426;2023-03-16T04:50:02;5.03;;;4.13;;
55409;SDS011;41279;43.546;16.426;2023-03-16T04:52:29;4.60;;;4.18;;
55409;SDS011;41279;43.546;16.426;2023-03-16T04:54:55;5.78;;;4.53;;
55409;SDS011;41279;43.546;16.426;2023-03-16T04:57:21;4.88;;;4.38;;
55409;SDS011;41279;43.546;16.426;2023-03-16T04:59:46;4.95;;;4.25;;
55409;SDS011;41279;43.546;16.426;2023-03-16T05:02:12;4.40;;;4.00;;
55409;SDS011;41279;43.546;16.426;2023-03-16T05:04:38;4.40;;;4.00;;
55409;SDS011;41279;43.546;16.426;2023-03-16T05:07:04;4.65;;;4.20;;
55409;SDS011;41279;43.546;16.426;2023-03-16T05:09:30;4.78;;;4.32;;
55409;SDS011;41279;43.546;16.426;2023-03-16T05:11:56;5.20;;;4.10;;
55409;SDS011;41279;43.546;16.426;2023-03-16T05:14:21;5.65;;;4.13;;
55409;SDS011;41279;43.546;16.426;2023-03-16T05:16:46;5.40;;;3.92;;
55409;SDS011;41279;43.546;16.426;2023-03-16T05:19:12;4.82;;;3.90;;
55409;SDS011;41279;43.546;16.426;2023-03-16T05:21:37;5.18;;;4.50;;
55409;SDS011;41279;43.546;16.426;2023-03-16T05:24:03;5.45;;;4.60;;
55409;SDS011;41279;43.546;16.426;2023-03-16T05:26:29;5.45;;;4.70;;
55409;SDS011;41279;43.546;16.426;2023-03-16T05:28:55;4.80;;;4.30;;
55409;SDS011;41279;43.546;16.426;2023-03-16T05:31:22;4.75;;;4.10;;
55409;SDS011;41279;43.546;16.426;2023-03-16T05:33:50;5.00;;;4.50;;
55409;SDS011;41279;43.546;16.426;2023-03-16T05:36:16;5.18;;;4.15;;
55409;SDS011;41279;43.546;16.426;2023-03-16T05:38:42;4.70;;;4.20;;
55409;SDS011;41279;43.546;16.426;2023-03-16T05:41:07;5.90;;;4.10;;
55409;SDS011;41279;43.546;16.426;2023-03-16T05:43:33;4.68;;;3.90;;
55409;SDS011;41279;43.546;16.426;2023-03-16T05:45:58;5.72;;;4.25;;
55409;SDS011;41279;43.546;16.426;2023-03-16T05:48:24;5.15;;;4.00;;
55409;SDS011;41279;43.546;16.426;2023-03-16T05:50:50;5.15;;;4.05;;
55409;SDS011;41279;43.546;16.426;2023-03-16T05:53:16;5.00;;;4.05;;
55409;SDS011;41279;43.546;16.426;2023-03-16T05:55:42;4.88;;;4.10;;
55409;SDS011;41279;43.546;16.426;2023-03-16T05:58:07;4.47;;;4.00;;
55409;SDS011;41279;43.546;16.426;2023-03-16T06:00:33;4.80;;;3.92;;
55409;SDS011;41279;43.546;16.426;2023-03-16T06:02:59;4.38;;;3.97;;
55409;SDS011;41279;43.546;16.426;2023-03-16T06:05:25;5.40;;;4.00;;
55409;SDS011;41279;43.546;16.426;2023-03-16T06:07:52;4.65;;;3.80;;
55409;SDS011;41279;43.546;16.426;2023-03-16T06:10:18;4.88;;;4.10;;
55409;SDS011;41279;43.546;16.426;2023-03-16T06:12:44;4.88;;;3.83;;
55409;SDS011;41279;43.546;16.426;2023-03-16T06:15:10;4.38;;;3.97;;
55409;SDS011;41279;43.546;16.426;2023-03-16T06:17:36;5.45;;;4.50;;
55409;SDS011;41279;43.546;16.426;2023-03-16T06:20:04;4.20;;;3.80;;
55409;SDS011;41279;43.546;16.426;2023-03-16T06:22:39;4.40;;;4.00;;
55409;SDS011;41279;43.546;16.426;2023-03-16T06:25:06;4.47;;;3.85;;
55409;SDS011;41279;43.546;16.426;2023-03-16T06:27:32;4.70;;;4.20;;
55409;SDS011;41279;43.546;16.426;2023-03-16T06:29:58;5.18;;;4.15;;
55409;SDS011;41279;43.546;16.426;2023-03-16T06:32:30;5.00;;;4.20;;
55409;SDS011;41279;43.546;16.426;2023-03-16T06:34:56;4.60;;;4.20;;
55409;SDS011;41279;43.546;16.426;2023-03-16T06:37:23;4.20;;;3.80;;
55409;SDS011;41279;43.546;16.426;2023-03-16T06:39:49;3.97;;;3.60;;
55409;SDS011;41279;43.546;16.426;2023-03-16T06:42:14;4.03;;;3.63;;
55409;SDS011;41279;43.546;16.426;2023-03-16T06:44:40;5.32;;;3.90;;
55409;SDS011;41279;43.546;16.426;2023-03-16T06:47:06;3.85;;;3.47;;
55409;SDS011;41279;43.546;16.426;2023-03-16T06:49:32;5.13;;;3.65;;
55409;SDS011;41279;43.546;16.426;2023-03-16T06:51:58;4.85;;;3.65;;
55409;SDS011;41279;43.546;16.426;2023-03-16T06:54:23;3.85;;;3.38;;
55409;SDS011;41279;43.546;16.426;2023-03-16T06:56:49;3.80;;;3.50;;
55409;SDS011;41279;43.546;16.426;2023-03-16T06:59:15;4.18;;;3.50;;
55409;SDS011;41279;43.546;16.426;2023-03-16T07:01:40;4.00;;;3.60;;
55409;SDS011;41279;43.546;16.426;2023-03-16T07:04:06;5.80;;;3.80;;
55409;SDS011;41279;43.546;16.426;2023-03-16T07:06:32;4.72;;;3.55;;
55409;SDS011;41279;43.546;16.426;2023-03-16T07:08:58;4.40;;;3.47;;
55409;SDS011;41279;43.546;16.426;2023-03-16T07:11:25;5.53;;;3.63;;
55409;SDS011;41279;43.546;16.426;2023-03-16T07:13:51;3.80;;;3.40;;
55409;SDS011;41279;43.546;16.426;2023-03-16T07:16:16;4.05;;;3.50;;
55409;SDS011;41279;43.546;16.426;2023-03-16T07:18:42;3.80;;;3.40;;
55409;SDS011;41279;43.546;16.426;2023-03-16T07:21:08;4.10;;;3.70;;
55409;SDS011;41279;43.546;16.426;2023-03-16T07:23:34;6.50;;;3.65;;
55409;SDS011;41279;43.546;16.426;2023-03-16T07:26:00;4.20;;;3.80;;
55409;SDS011;41279;43.546;16.426;2023-03-16T07:28:26;3.97;;;3.50;;
55409;SDS011;41279;43.546;16.426;2023-03-16T07:30:52;5.45;;;3.50;;
55409;SDS011;41279;43.546;16.426;2023-03-16T07:33:17;3.58;;;3.28;;
55409;SDS011;41279;43.546;16.426;2023-03-16T07:35:43;3.85;;;3.45;;
55409;SDS011;41279;43.546;16.426;2023-03-16T07:38:08;5.25;;;3.30;;
55409;SDS011;41279;43.546;16.426;2023-03-16T07:40:36;5.68;;;3.47;;
55409;SDS011;41279;43.546;16.426;2023-03-16T07:43:03;4.07;;;3.42;;
55409;SDS011;41279;43.546;16.426;2023-03-16T07:45:29;4.20;;;3.70;;
55409;SDS011;41279;43.546;16.426;2023-03-16T07:47:55;3.85;;;3.50;;
55409;SDS011;41279;43.546;16.426;2023-03-16T07:50:21;4.75;;;3.80;;
55409;SDS011;41279;43.546;16.426;2023-03-16T07:52:46;3.92;;;3.53;;
55409;SDS011;41279;43.546;16.426;2023-03-16T07:55:12;3.83;;;3.47;;
55409;SDS011;41279;43.546;16.426;2023-03-16T07:57:38;4.90;;;3.90;;
55409;SDS011;41279;43.546;16.426;2023-03-16T08:00:06;4.07;;;3.55;;
55409;SDS011;41279;43.546;16.426;2023-03-16T08:02:32;4.10;;;3.70;;
55409;SDS011;41279;43.546;16.426;2023-03-16T08:04:58;4.30;;;3.85;;
55409;SDS011;41279;43.546;16.426;2023-03-16T08:07:24;4.28;;;3.60;;
55409;SDS011;41279;43.546;16.426;2023-03-16T08:09:50;6.18;;;3.80;;
55409;SDS011;41279;43.546;16.426;2023-03-16T08:12:16;3.70;;;3.40;;
55409;SDS011;41279;43.546;16.426;2023-03-16T08:14:42;4.22;;;3.50;;
55409;SDS011;41279;43.546;16.426;2023-03-16T08:17:09;4.20;;;3.60;;
55409;SDS011;41279;43.546;16.426;2023-03-16T08:19:36;4.10;;;3.70;;
55409;SDS011;41279;43.546;16.426;2023-03-16T08:22:03;4.13;;;3.72;;
55409;SDS011;41279;43.546;16.426;2023-03-16T08:24:29;4.97;;;3.78;;
55409;SDS011;41279;43.546;16.426;2023-03-16T08:26:55;3.90;;;3.50;;
55409;SDS011;41279;43.546;16.426;2023-03-16T08:29:21;4.13;;;3.63;;
55409;SDS011;41279;43.546;16.426;2023-03-16T08:31:47;4.75;;;3.42;;
55409;SDS011;41279;43.546;16.426;2023-03-16T08:34:13;5.20;;;3.65;;
55409;SDS011;41279;43.546;16.426;2023-03-16T08:36:40;5.10;;;3.90;;
55409;SDS011;41279;43.546;16.426;2023-03-16T08:39:08;4.22;;;3.50;;
55409;SDS011;41279;43.546;16.426;2023-03-16T08:41:41;5.43;;;3.60;;
55409;SDS011;41279;43.546;16.426;2023-03-16T08:44:08;4.38;;;3.78;;
55409;SDS011;41279;43.546;16.426;2023-03-16T08:46:34;3.90;;;3.50;;
55409;SDS011;41279;43.546;16.426;2023-03-16T08:49:00;3.72;;;3.40;;
55409;SDS011;41279;43.546;16.426;2023-03-16T08:51:26;3.90;;;3.50;;
55409;SDS011;41279;43.546;16.426;2023-03-16T08:53:53;4.72;;;3.65;;
55409;SDS011;41279;43.546;16.426;2023-03-16T08:56:19;4.10;;;3.70;;
55409;SDS011;41279;43.546;16.426;2023-03-16T08:58:45;6.38;;;3.80;;
55409;SDS011;41279;43.546;16.426;2023-03-16T09:01:12;3.88;;;3.47;;
55409;SDS011;41279;43.546;16.426;2023-03-16T09:03:39;3.50;;;3.20;;
55409;SDS011;41279;43.546;16.426;2023-03-16T09:06:07;4.30;;;3.40;;
55409;SDS011;41279;43.546;16.426;2023-03-16T09:08:37;5.20;;;3.90;;
55409;SDS011;41279;43.546;16.426;2023-03-16T09:11:04;4.45;;;3.50;;
55409;SDS011;41279;43.546;16.426;2023-03-16T09:13:32;4.32;;;3.70;;
55409;SDS011;41279;43.546;16.426;2023-03-16T09:15:58;4.20;;;3.50;;
55409;SDS011;41279;43.546;16.426;2023-03-16T09:18:24;4.13;;;3.40;;
55409;SDS011;41279;43.546;16.426;2023-03-16T09:20:57;7.30;;;3.97;;
55409;SDS011;41279;43.546;16.426;2023-03-16T09:23:24;4.28;;;3.88;;
55409;SDS011;41279;43.546;16.426;2023-03-16T09:25:50;4.30;;;3.53;;
55409;SDS011;41279;43.546;16.426;2023-03-16T09:28:17;4.05;;;3.20;;
55409;SDS011;41279;43.546;16.426;2023-03-16T09:30:43;4.03;;;3.63;;
55409;SDS011;41279;43.546;16.426;2023-03-16T09:33:09;4.25;;;3.85;;
55409;SDS011;41279;43.546;16.426;2023-03-16T09:35:34;3.95;;;3.40;;
55409;SDS011;41279;43.546;16.426;2023-03-16T09:38:01;3.75;;;3.28;;
55409;SDS011;41279;43.546;16.426;2023-03-16T09:40:28;3.90;;;3.50;;
55409;SDS011;41279;43.546;16.426;2023-03-16T09:48:10;3.80;;;3.40;;
55409;SDS011;41279;43.546;16.426;2023-03-16T09:50:37;3.80;;;3.50;;
55409;SDS011;41279;43.546;16.426;2023-03-16T09:55:52;4.75;;;3.50;;
55409;SDS011;41279;43.546;16.426;2023-03-16T09:58:23;4.95;;;3.50;;
55409;SDS011;41279;43.546;16.426;2023-03-16T10:00:58;5.65;;;3.60;;
55409;SDS011;41279;43.546;16.426;2023-03-16T10:06:28;4.20;;;3.65;;
55409;SDS011;41279;43.546;16.426;2023-03-16T10:11:32;4.03;;;3.60;;
55409;SDS011;41279;43.546;16.426;2023-03-16T10:22:02;4.50;;;3.40;;
55409;SDS011;41279;43.546;16.426;2023-03-16T10:27:23;3.97;;;3.47;;
55409;SDS011;41279;43.546;16.426;2023-03-16T10:29:53;4.13;;;3.55;;
55409;SDS011;41279;43.546;16.426;2023-03-16T10:32:20;5.07;;;3.47;;
55409;SDS011;41279;43.546;16.426;2023-03-16T10:34:58;3.92;;;3.40;;
55409;SDS011;41279;43.546;16.426;2023-03-16T10:37:38;3.78;;;3.30;;
55409;SDS011;41279;43.546;16.426;2023-03-16T10:40:07;4.03;;;3.63;;
55409;SDS011;41279;43.546;16.426;2023-03-16T10:42:36;4.00;;;3.50;;
55409;SDS011;41279;43.546;16.426;2023-03-16T10:45:02;3.80;;;3.30;;
55409;SDS011;41279;43.546;16.426;2023-03-16T10:47:29;3.83;;;3.40;;
55409;SDS011;41279;43.546;16.426;2023-03-16T10:49:56;3.83;;;3.40;;
55409;SDS011;41279;43.546;16.426;2023-03-16T10:54:54;5.47;;;3.80;;
55409;SDS011;41279;43.546;16.426;2023-03-16T10:57:32;4.72;;;4.05;;
55409;SDS011;41279;43.546;16.426;2023-03-16T11:02:44;4.43;;;3.30;;
55409;SDS011;41279;43.546;16.426;2023-03-16T11:07:47;4.00;;;3.60;;
55409;SDS011;41279;43.546;16.426;2023-03-16T11:10:24;4.68;;;3.72;;
55409;SDS011;41279;43.546;16.426;2023-03-16T11:12:53;4.63;;;3.67;;
55409;SDS011;41279;43.546;16.426;2023-03-16T11:15:19;4.50;;;4.10;;
55409;SDS011;41279;43.546;16.426;2023-03-16T11:17:48;4.57;;;3.90;;
55409;SDS011;41279;43.546;16.426;2023-03-16T11:20:21;4.82;;;3.83;;
55409;SDS011;41279;43.546;16.426;2023-03-16T11:22:50;4.20;;;3.80;;
55409;SDS011;41279;43.546;16.426;2023-03-16T11:30:39;4.20;;;3.50;;
55409;SDS011;41279;43.546;16.426;2023-03-16T11:33:09;4.05;;;3.50;;
55409;SDS011;41279;43.546;16.426;2023-03-16T11:35:42;5.35;;;3.75;;
55409;SDS011;41279;43.546;16.426;2023-03-16T11:38:33;4.53;;;3.60;;
55409;SDS011;41279;43.546;16.426;2023-03-16T11:41:08;4.65;;;3.80;;
55409;SDS011;41279;43.546;16.426;2023-03-16T11:54:54;4.18;;;3.78;;
55409;SDS011;41279;43.546;16.426;2023-03-16T12:05:57;5.68;;;3.75;;
55409;SDS011;41279;43.546;16.426;2023-03-16T12:14:26;4.45;;;3.63;;
55409;SDS011;41279;43.546;16.426;2023-03-16T12:16:56;5.43;;;4.00;;
55409;SDS011;41279;43.546;16.426;2023-03-16T12:19:26;6.70;;;3.97;;
55409;SDS011;41279;43.546;16.426;2023-03-16T12:22:21;4.20;;;3.80;;
55409;SDS011;41279;43.546;16.426;2023-03-16T12:27:33;4.57;;;4.10;;
55409;SDS011;41279;43.546;16.426;2023-03-16T12:30:16;5.35;;;4.03;;
55409;SDS011;41279;43.546;16.426;2023-03-16T12:35:32;4.90;;;4.00;;
55409;SDS011;41279;43.546;16.426;2023-03-16T12:38:17;4.18;;;3.78;;
55409;SDS011;41279;43.546;16.426;2023-03-16T12:41:00;4.43;;;3.80;;
55409;SDS011;41279;43.546;16.426;2023-03-16T12:46:29;4.03;;;3.60;;
55409;SDS011;41279;43.546;16.426;2023-03-16T12:48:57;4.15;;;3.60;;
55409;SDS011;41279;43.546;16.426;2023-03-16T12:51:32;4.15;;;3.70;;
55409;SDS011;41279;43.546;16.426;2023-03-16T12:54:03;5.18;;;3.38;;
55409;SDS011;41279;43.546;16.426;2023-03-16T12:58:57;5.82;;;3.78;;
55409;SDS011;41279;43.546;16.426;2023-03-16T13:01:26;4.18;;;3.78;;
55409;SDS011;41279;43.546;16.426;2023-03-16T13:07:03;4.30;;;3.90;;
55409;SDS011;41279;43.546;16.426;2023-03-16T13:09:39;4.63;;;3.47;;
55409;SDS011;41279;43.546;16.426;2023-03-16T13:12:19;4.93;;;3.75;;
55409;SDS011;41279;43.546;16.426;2023-03-16T13:14:46;4.75;;;3.80;;
55409;SDS011;41279;43.546;16.426;2023-03-16T13:19:42;4.25;;;3.85;;
55409;SDS011;41279;43.546;16.426;2023-03-16T13:22:27;4.20;;;3.70;;
55409;SDS011;41279;43.546;16.426;2023-03-16T13:27:51;4.65;;;3.78;;
55409;SDS011;41279;43.546;16.426;2023-03-16T13:32:44;4.10;;;3.70;;
55409;SDS011;41279;43.546;16.426;2023-03-16T13:35:14;4.28;;;3.85;;
55409;SDS011;41279;43.546;16.426;2023-03-16T13:37:42;3.70;;;3.30;;
55409;SDS011;41279;43.546;16.426;2023-03-16T13:40:18;4.80;;;3.85;;
55409;SDS011;41279;43.546;16.426;2023-03-16T13:42:49;5.00;;;3.88;;
55409;SDS011;41279;43.546;16.426;2023-03-16T13:45:19;4.20;;;3.80;;
55409;SDS011;41279;43.546;16.426;2023-03-16T13:47:47;4.95;;;3.78;;
55409;SDS011;41279;43.546;16.426;2023-03-16T13:50:14;4.30;;;3.63;;
55409;SDS011;41279;43.546;16.426;2023-03-16T13:52:40;4.07;;;3.67;;
55409;SDS011;41279;43.546;16.426;2023-03-16T13:55:15;4.82;;;4.10;;
55409;SDS011;41279;43.546;16.426;2023-03-16T14:02:42;5.65;;;4.40;;
55409;SDS011;41279;43.546;16.426;2023-03-16T14:05:09;4.50;;;4.10;;
55409;SDS011;41279;43.546;16.426;2023-03-16T14:07:36;4.63;;;4.10;;
55409;SDS011;41279;43.546;16.426;2023-03-16T14:10:02;4.80;;;4.22;;
55409;SDS011;41279;43.546;16.426;2023-03-16T14:12:29;5.55;;;4.10;;
55409;SDS011;41279;43.546;16.426;2023-03-16T14:14:55;6.28;;;4.00;;
55409;SDS011;41279;43.546;16.426;2023-03-16T14:17:20;5.55;;;4.20;;
55409;SDS011;41279;43.546;16.426;2023-03-16T14:19:51;4.90;;;4.20;;
55409;SDS011;41279;43.546;16.426;2023-03-16T14:22:24;4.65;;;4.13;;
55409;SDS011;41279;43.546;16.426;2023-03-16T14:25:02;9.90;;;6.10;;
55409;SDS011;41279;43.546;16.426;2023-03-16T14:27:31;6.63;;;4.70;;
55409;SDS011;41279;43.546;16.426;2023-03-16T14:30:18;6.30;;;4.30;;
55409;SDS011;41279;43.546;16.426;2023-03-16T14:35:24;4.43;;;3.92;;
55409;SDS011;41279;43.546;16.426;2023-03-16T14:37:55;4.50;;;4.05;;
55409;SDS011;41279;43.546;16.426;2023-03-16T14:40:26;4.60;;;4.10;;
55409;SDS011;41279;43.546;16.426;2023-03-16T14:42:57;5.00;;;4.00;;
55409;SDS011;41279;43.546;16.426;2023-03-16T14:45:31;4.30;;;3.70;;
55409;SDS011;41279;43.546;16.426;2023-03-16T14:48:02;4.70;;;4.00;;
55409;SDS011;41279;43.546;16.426;2023-03-16T14:50:31;4.47;;;3.80;;
55409;SDS011;41279;43.546;16.426;2023-03-16T14:52:58;4.75;;;3.88;;
55409;SDS011;41279;43.546;16.426;2023-03-16T14:55:24;4.55;;;4.13;;
55409;SDS011;41279;43.546;16.426;2023-03-16T14:57:50;4.82;;;4.22;;
55409;SDS011;41279;43.546;16.426;2023-03-16T15:00:18;4.75;;;4.00;;
55409;SDS011;41279;43.546;16.426;2023-03-16T15:02:57;4.72;;;3.97;;
55409;SDS011;41279;43.546;16.426;2023-03-16T15:05:33;4.35;;;3.95;;
55409;SDS011;41279;43.546;16.426;2023-03-16T15:08:01;6.30;;;4.50;;
55409;SDS011;41279;43.546;16.426;2023-03-16T15:10:28;4.45;;;4.05;;
55409;SDS011;41279;43.546;16.426;2023-03-16T15:12:57;4.93;;;4.43;;
55409;SDS011;41279;43.546;16.426;2023-03-16T15:15:43;5.53;;;4.32;;
55409;SDS011;41279;43.546;16.426;2023-03-16T15:18:12;4.75;;;4.25;;
55409;SDS011;41279;43.546;16.426;2023-03-16T15:20:39;5.20;;;4.10;;
55409;SDS011;41279;43.546;16.426;2023-03-16T15:23:08;6.35;;;4.38;;
55409;SDS011;41279;43.546;16.426;2023-03-16T15:25:39;4.80;;;4.30;;
55409;SDS011;41279;43.546;16.426;2023-03-16T15:30:35;4.75;;;4.25;;
55409;SDS011;41279;43.546;16.426;2023-03-16T15:33:02;6.00;;;5.25;;
55409;SDS011;41279;43.546;16.426;2023-03-16T15:35:27;5.40;;;4.05;;
55409;SDS011;41279;43.546;16.426;2023-03-16T15:37:53;6.22;;;4.10;;
55409;SDS011;41279;43.546;16.426;2023-03-16T15:40:20;5.25;;;4.20;;
55409;SDS011;41279;43.546;16.426;2023-03-16T15:42:50;4.78;;;4.28;;
55409;SDS011;41279;43.546;16.426;2023-03-16T15:45:17;6.15;;;4.05;;
55409;SDS011;41279;43.546;16.426;2023-03-16T15:47:47;6.25;;;4.78;;
55409;SDS011;41279;43.546;16.426;2023-03-16T15:50:16;5.45;;;4.25;;
55409;SDS011;41279;43.546;16.426;2023-03-16T15:52:46;5.10;;;4.10;;
55409;SDS011;41279;43.546;16.426;2023-03-16T15:55:18;4.90;;;4.47;;
55409;SDS011;41279;43.546;16.426;2023-03-16T15:57:50;6.65;;;4.50;;
55409;SDS011;41279;43.546;16.426;2023-03-16T16:00:34;5.10;;;4.35;;
55409;SDS011;41279;43.546;16.426;2023-03-16T16:03:02;6.78;;;4.60;;
55409;SDS011;41279;43.546;16.426;2023-03-16T16:05:30;4.82;;;3.97;;
55409;SDS011;41279;43.546;16.426;2023-03-16T16:07:56;5.38;;;3.50;;
55409;SDS011;41279;43.546;16.426;2023-03-16T16:10:22;5.18;;;3.85;;
55409;SDS011;41279;43.546;16.426;2023-03-16T16:12:49;4.15;;;3.75;;
55409;SDS011;41279;43.546;16.426;2023-03-16T16:15:17;4.22;;;3.70;;
55409;SDS011;41279;43.546;16.426;2023-03-16T16:17:49;5.00;;;4.10;;
55409;SDS011;41279;43.546;16.426;2023-03-16T16:20:23;4.53;;;4.13;;
55409;SDS011;41279;43.546;16.426;2023-03-16T16:22:51;4.38;;;3.97;;
55409;SDS011;41279;43.546;16.426;2023-03-16T16:25:18;5.25;;;3.83;;
55409;SDS011;41279;43.546;16.426;2023-03-16T16:27:47;5.85;;;3.90;;